createdAt,value
2019-05-29T00:05:42.219Z,6.50
2019-05-29T00:20:53.326Z,6.17
2019-05-29T00:36:04.718Z,6.20
2019-05-29T00:51:17.439Z,6.45
2019-05-29T01:06:27.014Z,6.30
2019-05-29T01:21:37.418Z,6.03
2019-05-29T01:36:47.092Z,5.72
2019-05-29T01:51:59.923Z,4.78
2019-05-29T02:07:09.868Z,4.67
2019-05-29T02:22:20.966Z,4.62
2019-05-29T02:37:48.467Z,4.97
2019-05-29T02:52:59.303Z,4.70
2019-05-29T03:08:09.005Z,5.62
2019-05-29T03:23:18.675Z,5.45
2019-05-29T03:38:28.366Z,4.35
2019-05-29T03:53:39.054Z,2.58
2019-05-29T04:08:48.011Z,1.15
2019-05-29T04:24:01.835Z,1.35
2019-05-29T04:39:11.861Z,1.00
2019-05-29T04:54:22.698Z,0.80
2019-05-29T05:09:35.470Z,1.12
2019-05-29T05:24:44.377Z,2.33
2019-05-29T05:39:56.567Z,0.42
2019-05-29T05:55:08.362Z,0.40
2019-05-29T06:10:17.468Z,0.40
2019-05-29T06:25:27.595Z,0.65
2019-05-29T06:40:46.294Z,0.45
2019-05-29T06:55:57.067Z,0.50
2019-05-29T07:11:08.443Z,0.50
2019-05-29T07:26:20.977Z,0.50
2019-05-29T07:41:31.590Z,0.53
2019-05-29T07:56:40.491Z,0.40
2019-05-29T08:11:50.149Z,0.78
2019-05-29T08:27:00.126Z,0.50
2019-05-29T08:42:22.769Z,0.68
2019-05-29T08:57:19.830Z,0.60
2019-05-29T09:12:30.112Z,0.50
2019-05-29T09:27:42.262Z,0.70
2019-05-29T09:42:51.637Z,0.68
2019-05-29T09:58:00.826Z,1.00
2019-05-29T10:13:10.504Z,0.45
2019-05-29T10:28:19.740Z,0.65
2019-05-29T10:43:34.547Z,0.70
2019-05-29T10:58:49.674Z,0.80
2019-05-29T11:13:55.090Z,0.60
2019-05-29T11:29:05.475Z,1.17
2019-05-29T11:44:15.023Z,1.77
2019-05-29T11:59:24.350Z,1.50
2019-05-29T12:14:33.035Z,1.42
2019-05-29T12:29:43.616Z,1.80
2019-05-29T12:44:53.575Z,5.03
2019-05-29T13:00:04.355Z,4.53
2019-05-29T13:15:15.782Z,4.40
2019-05-29T13:30:25.352Z,2.72
2019-05-29T13:45:34.226Z,3.25
2019-05-29T14:00:43.063Z,3.77
2019-05-29T14:15:52.580Z,18.73
2019-05-29T14:31:03.953Z,2.62
2019-05-29T14:46:12.782Z,4.40
2019-05-29T15:01:22.484Z,5.30
2019-05-29T15:16:35.585Z,5.50
2019-05-29T15:31:45.458Z,10.38
2019-05-29T15:46:54.776Z,5.30
2019-05-29T16:02:04.815Z,3.55
2019-05-29T16:17:15.171Z,8.43
2019-05-29T16:32:24.717Z,9.70
2019-05-29T16:47:35.014Z,8.95
2019-05-29T17:02:43.932Z,8.40
2019-05-29T17:17:54.629Z,5.80
2019-05-29T17:33:11.287Z,7.83
2019-05-29T17:48:21.677Z,7.58
2019-05-29T18:03:30.452Z,7.92
2019-05-29T18:18:40.613Z,7.95
2019-05-29T18:33:54.686Z,9.08
2019-05-29T18:49:05.394Z,7.90
2019-05-29T19:04:14.546Z,7.90
2019-05-29T19:19:28.383Z,8.23
2019-05-29T19:34:39.112Z,8.23
2019-05-29T19:49:50.067Z,8.75
2019-05-29T20:04:58.759Z,12.78
2019-05-29T20:20:10.845Z,11.00
2019-05-29T20:35:21.167Z,8.73
2019-05-29T20:50:33.253Z,9.65
2019-05-29T21:05:42.883Z,10.48
2019-05-29T21:20:52.078Z,10.15
2019-05-29T21:36:01.829Z,10.15
2019-05-29T21:51:10.722Z,10.28
2019-05-29T22:06:19.973Z,9.15
2019-05-29T22:21:28.832Z,8.25
2019-05-29T22:36:37.819Z,7.35
2019-05-29T22:51:47.809Z,5.50
2019-05-29T23:07:00.419Z,5.62
2019-05-29T23:22:09.954Z,7.35
2019-05-29T23:37:19.243Z,7.37
2019-05-29T23:52:29.178Z,6.50
